Time;durP1;ratioP1;P1;durP2;ratioP2;P2;SDS_P1;SDS_P2;PMS_P1;PMS_P2;Temp;Humidity;BMP_temperature;BMP_pressure;BME280_temperature;BME280_humidity;BME280_pressure;Samples;Min_cycle;Max_cycle;Signal;HPM_P1;HPM_P2
2023/08/23 00:32:32;;;;;;;30.35;25.13;;;20.50;99.90;;;;;;5054476;28;20627;-59
2023/08/23 06:03:31;;;;;;;45.03;28.10;;;22.20;99.90;;;;;;4761034;27;8367157;-58
2023/08/23 06:06:04;;;;;;;43.00;26.88;;;22.40;99.90;;;;;;5049749;28;20032;-58
2023/08/23 06:08:36;;;;;;;42.50;28.30;;;22.60;99.90;;;;;;5044223;28;20470;-58
2023/08/23 06:11:08;;;;;;;52.03;28.95;;;22.70;99.90;;;;;;5045647;28;20029;-58
2023/08/23 06:13:42;;;;;;;39.08;28.50;;;22.80;99.90;;;;;;5046000;28;20040;-58
2023/08/23 06:16:15;;;;;;;48.20;29.73;;;23.00;99.90;;;;;;5045855;28;20556;-58
2023/08/23 06:18:50;;;;;;;43.53;28.42;;;23.10;99.90;;;;;;5045307;28;20612;-58
2023/08/23 06:21:19;;;;;;;37.92;27.27;;;23.30;99.90;;;;;;5045215;28;20029;-58
2023/08/23 06:23:45;;;;;;;35.92;27.10;;;23.50;99.90;;;;;;5045234;28;20055;-58
2023/08/23 06:26:11;;;;;;;43.90;28.70;;;23.70;99.90;;;;;;5045654;28;20029;-58
2023/08/23 06:28:37;;;;;;;46.35;26.48;;;23.90;99.90;;;;;;5046525;28;20040;-58
2023/08/23 06:31:03;;;;;;;40.78;26.98;;;24.10;99.90;;;;;;5045704;28;20090;-58
2023/08/23 06:33:29;;;;;;;36.80;25.98;;;24.20;99.90;;;;;;5044268;28;20572;-58
2023/08/23 06:35:55;;;;;;;40.38;26.80;;;24.40;99.90;;;;;;5045553;28;20113;-58
2023/08/23 06:38:21;;;;;;;34.63;24.88;;;24.60;99.90;;;;;;5046103;28;20043;-58
2023/08/23 06:40:47;;;;;;;33.47;25.30;;;24.70;99.90;;;;;;5045312;28;20029;-58
2023/08/23 06:43:19;;;;;;;43.25;25.67;;;25.10;99.90;;;;;;5045440;28;20139;-58
2023/08/23 06:45:45;;;;;;;38.60;24.90;;;25.20;99.90;;;;;;5045616;28;20118;-58
2023/08/23 06:48:12;;;;;;;37.28;23.88;;;25.50;99.90;;;;;;5045102;28;20237;-58
2023/08/23 06:50:38;;;;;;;38.25;24.80;;;25.70;99.90;;;;;;5046860;28;20028;-58
2023/08/23 06:53:05;;;;;;;32.55;24.17;;;26.00;99.90;;;;;;5048681;28;20035;-58
2023/08/23 06:55:31;;;;;;;33.20;23.27;;;26.20;99.90;;;;;;5048652;28;20809;-58
2023/08/23 06:57:57;;;;;;;38.92;25.42;;;26.50;99.90;;;;;;5049786;28;20029;-58
2023/08/23 07:00:23;;;;;;;36.58;26.50;;;26.70;99.90;;;;;;5048442;28;20059;-57
2023/08/23 07:02:49;;;;;;;35.17;23.30;;;26.70;99.90;;;;;;5064324;28;20051;-58
2023/08/23 07:05:15;;;;;;;28.92;21.30;;;27.10;99.90;;;;;;5069008;28;20032;-58
2023/08/23 07:07:41;;;;;;;24.73;21.00;;;27.40;99.70;;;;;;5068241;28;20093;-67
2023/08/23 07:10:07;;;;;;;24.13;19.95;;;27.60;98.70;;;;;;5067625;28;20021;-67
2023/08/23 07:12:33;;;;;;;31.63;21.38;;;27.90;98.00;;;;;;5068270;28;20154;-67
2023/08/23 07:14:59;;;;;;;23.42;20.38;;;28.20;95.00;;;;;;5055657;28;20041;-68
2023/08/23 07:17:25;;;;;;;29.27;22.13;;;28.30;93.60;;;;;;5055861;28;20370;-67
2023/08/23 07:19:51;;;;;;;29.60;22.58;;;28.30;94.10;;;;;;5054626;28;20094;-68
2023/08/23 07:22:17;;;;;;;37.35;21.85;;;28.60;95.00;;;;;;5056689;28;20058;-67
2023/08/23 07:24:43;;;;;;;32.88;22.75;;;28.90;94.00;;;;;;5054567;28;20039;-68
2023/08/23 07:27:09;;;;;;;40.40;23.88;;;29.20;92.50;;;;;;5055498;28;20913;-67
2023/08/23 07:29:36;;;;;;;40.78;21.73;;;29.60;92.70;;;;;;5051445;28;20028;-68
2023/08/23 07:32:04;;;;;;;28.92;21.00;;;29.40;91.60;;;;;;5050804;28;20533;-68
2023/08/23 07:34:30;;;;;;;31.13;21.80;;;29.50;90.60;;;;;;5051844;28;20039;-68
2023/08/23 07:36:56;;;;;;;31.17;20.60;;;29.70;89.10;;;;;;5050796;28;20032;-68
2023/08/23 07:39:23;;;;;;;28.27;21.85;;;29.70;88.10;;;;;;5047103;28;20039;-68
2023/08/23 07:41:52;;;;;;;31.13;21.70;;;30.00;86.40;;;;;;5028332;28;20039;-68
2023/08/23 07:44:22;;;;;;;28.65;20.08;;;30.30;86.30;;;;;;5041174;28;20033;-68
2023/08/23 07:46:48;;;;;;;29.75;19.20;;;30.40;85.00;;;;;;5040968;28;20358;-68
2023/08/23 07:49:15;;;;;;;29.67;19.48;;;30.50;87.90;;;;;;5041238;28;20048;-68
2023/08/23 07:51:41;;;;;;;28.63;18.73;;;30.90;81.00;;;;;;5044853;28;20032;-69
2023/08/23 07:54:07;;;;;;;28.05;20.45;;;31.10;80.30;;;;;;5045145;28;20028;-68
2023/08/23 07:56:33;;;;;;;28.25;19.63;;;31.20;79.20;;;;;;5043746;28;20488;-68
2023/08/23 07:58:59;;;;;;;26.85;19.20;;;31.30;81.80;;;;;;5048834;28;20607;-69
2023/08/23 08:01:26;;;;;;;22.80;18.23;;;31.60;76.10;;;;;;5043801;28;20214;-69
2023/08/23 08:03:52;;;;;;;22.90;17.25;;;31.70;75.90;;;;;;5042060;28;20503;-69
2023/08/23 08:06:22;;;;;;;20.40;18.23;;;31.90;72.30;;;;;;5040746;28;20654;-69
2023/08/23 08:08:48;;;;;;;25.73;18.17;;;31.80;74.60;;;;;;5039876;28;20025;-69
2023/08/23 08:11:15;;;;;;;26.65;18.88;;;32.20;71.70;;;;;;5048994;28;20113;-69
2023/08/23 08:13:41;;;;;;;26.02;18.20;;;32.50;71.60;;;;;;5041379;28;20029;-69
2023/08/23 08:16:12;;;;;;;22.00;18.38;;;32.90;70.60;;;;;;5040110;28;20048;-70
2023/08/23 08:18:38;;;;;;;24.60;19.10;;;32.90;68.40;;;;;;5039002;28;20032;-70
2023/08/23 08:21:04;;;;;;;27.45;19.15;;;33.40;70.60;;;;;;5043499;28;20024;-70
2023/08/23 08:23:31;;;;;;;29.40;19.30;;;33.10;69.50;;;;;;5048502;28;21083;-69
2023/08/23 08:25:57;;;;;;;30.80;18.50;;;33.50;66.50;;;;;;5049784;28;20021;-70
2023/08/23 08:28:24;;;;;;;29.33;19.17;;;33.60;64.60;;;;;;5050136;28;20529;-70
2023/08/23 08:30:50;;;;;;;30.23;19.52;;;33.90;63.40;;;;;;5050174;28;20065;-70
2023/08/23 08:33:17;;;;;;;28.10;18.38;;;33.90;62.70;;;;;;5049067;28;20028;-70
2023/08/23 08:35:43;;;;;;;33.70;19.27;;;33.90;61.30;;;;;;5049991;28;20036;-70
2023/08/23 08:38:10;;;;;;;34.33;20.77;;;34.20;59.40;;;;;;5049723;28;20448;-70
2023/08/23 08:40:39;;;;;;;29.13;19.13;;;34.20;58.30;;;;;;5049509;28;20607;-70
2023/08/23 08:43:06;;;;;;;27.97;19.77;;;34.20;58.30;;;;;;5049631;28;20166;-69
2023/08/23 08:45:32;;;;;;;30.25;20.92;;;34.50;57.00;;;;;;5050503;28;20356;-70
2023/08/23 08:47:58;;;;;;;36.35;19.10;;;34.60;58.40;;;;;;5050279;28;20138;-69
2023/08/23 08:50:32;;;;;;;31.98;19.52;;;34.60;58.40;;;;;;5050530;28;20081;-70
2023/08/23 08:53:05;;;;;;;25.45;18.90;;;34.90;56.90;;;;;;5049587;28;20051;-70
2023/08/23 08:55:31;;;;;;;27.33;18.95;;;35.40;56.50;;;;;;5040701;28;20025;-70
2023/08/23 08:57:59;;;;;;;25.50;18.55;;;35.80;53.40;;;;;;5038155;28;20040;-70
2023/08/23 09:00:26;;;;;;;25.55;18.45;;;35.80;54.50;;;;;;5039995;28;20506;-70
2023/08/23 09:02:54;;;;;;;27.85;19.23;;;36.10;52.80;;;;;;5038398;28;20052;-70
2023/08/23 09:05:24;;;;;;;31.42;19.67;;;36.20;50.60;;;;;;5038388;28;20056;-70
2023/08/23 09:07:52;;;;;;;29.65;19.77;;;36.30;52.70;;;;;;5038347;28;20044;-70
2023/08/23 09:10:18;;;;;;;22.58;19.00;;;36.50;48.40;;;;;;5033426;28;20037;-70
2023/08/23 09:12:45;;;;;;;24.95;18.58;;;36.50;47.50;;;;;;5030290;28;20060;-69
2023/08/23 09:15:11;;;;;;;27.90;19.48;;;36.70;47.30;;;;;;5029295;28;20036;-70
2023/08/23 09:17:37;;;;;;;24.90;18.52;;;36.40;47.20;;;;;;5030484;28;20474;-70
2023/08/23 09:20:07;;;;;;;24.73;19.90;;;36.70;46.60;;;;;;5029118;28;20340;-70
2023/08/23 09:22:34;;;;;;;33.00;18.88;;;37.10;46.90;;;;;;5029564;28;20029;-70
2023/08/23 09:25:01;;;;;;;24.33;18.73;;;37.30;46.20;;;;;;5030009;28;20031;-70
2023/08/23 09:27:27;;;;;;;25.10;19.52;;;37.20;43.60;;;;;;5030137;28;20965;-70
2023/08/23 09:29:54;;;;;;;27.52;19.08;;;37.10;44.70;;;;;;5028179;28;20606;-70
2023/08/23 09:32:23;;;;;;;26.90;19.05;;;37.30;46.10;;;;;;5027980;28;20089;-70
2023/08/23 09:34:49;;;;;;;26.65;18.63;;;37.50;43.60;;;;;;5030043;28;20071;-70
2023/08/23 09:37:18;;;;;;;26.55;19.15;;;37.80;43.70;;;;;;5028599;28;20037;-70
2023/08/23 09:39:44;;;;;;;23.70;19.00;;;38.00;41.30;;;;;;5028898;28;20025;-70
2023/08/23 09:42:14;;;;;;;29.35;19.40;;;36.60;43.00;;;;;;5029182;28;20028;-70
2023/08/23 09:44:43;;;;;;;29.30;18.52;;;37.20;43.70;;;;;;5028909;28;20054;-70
2023/08/23 09:47:15;;;;;;;24.35;18.10;;;37.50;43.30;;;;;;5028615;28;20025;-70
2023/08/23 09:49:43;;;;;;;33.63;19.77;;;37.60;41.70;;;;;;5028506;28;20091;-71
2023/08/23 09:52:11;;;;;;;27.35;17.95;;;36.50;44.10;;;;;;5028557;28;20033;-70
2023/08/23 09:54:56;;;;;;;24.63;19.48;;;37.00;44.40;;;;;;5028802;28;20038;-70
2023/08/23 09:57:23;;;;;;;25.42;18.67;;;37.50;43.60;;;;;;5029710;28;20040;-70
2023/08/23 09:59:49;;;;;;;25.38;18.08;;;38.10;44.50;;;;;;5028476;28;20044;-70
2023/08/23 10:02:17;;;;;;;31.60;17.50;;;38.40;39.90;;;;;;5028234;28;20053;-71
2023/08/23 10:04:44;;;;;;;21.83;17.42;;;38.50;39.00;;;;;;5028552;28;20047;-70
2023/08/23 10:07:15;;;;;;;25.90;18.45;;;38.30;39.10;;;;;;5028653;28;20025;-70
2023/08/23 10:09:41;;;;;;;21.55;17.20;;;38.40;39.30;;;;;;5029371;28;20032;-71
2023/08/23 10:12:11;;;;;;;24.42;17.45;;;38.40;37.70;;;;;;5028319;28;20033;-70
2023/08/23 10:14:44;;;;;;;30.05;17.35;;;38.40;39.20;;;;;;5028726;28;20033;-71
2023/08/23 10:17:13;;;;;;;18.48;16.10;;;38.50;37.40;;;;;;5029245;28;20132;-71
2023/08/23 10:19:39;;;;;;;21.38;16.58;;;38.50;36.20;;;;;;5028046;28;20037;-71
2023/08/23 10:22:05;;;;;;;20.90;15.77;;;38.30;36.60;;;;;;5029473;28;20037;-71
2023/08/23 10:24:31;;;;;;;20.20;16.30;;;38.50;36.40;;;;;;5028585;28;20163;-71
2023/08/23 10:27:06;;;;;;;27.98;17.67;;;38.40;35.30;;;;;;5028217;28;20033;-71
2023/08/23 10:29:34;;;;;;;23.45;17.02;;;38.20;37.20;;;;;;5028577;28;20048;-71
2023/08/23 10:32:07;;;;;;;18.70;15.82;;;38.40;36.00;;;;;;5010519;28;20036;-71
2023/08/23 10:34:36;;;;;;;19.05;15.70;;;38.80;37.00;;;;;;5028357;28;20033;-71
2023/08/23 10:37:15;;;;;;;23.00;16.15;;;38.60;35.20;;;;;;5034828;28;20056;-71
2023/08/23 10:39:53;;;;;;;17.67;15.52;;;38.80;35.40;;;;;;5052151;28;20028;-70
2023/08/23 10:42:20;;;;;;;23.63;16.20;;;39.00;33.90;;;;;;5052730;28;20420;-70
2023/08/23 10:45:04;;;;;;;18.55;15.98;;;39.30;36.40;;;;;;5049040;28;20870;-71
2023/08/23 10:47:35;;;;;;;25.05;14.73;;;39.60;33.30;;;;;;5047706;28;20024;-71
2023/08/23 10:50:03;;;;;;;14.23;12.73;;;39.50;32.30;;;;;;5050965;28;20024;-70
2023/08/23 10:52:30;;;;;;;16.60;14.60;;;39.30;30.20;;;;;;5040311;28;20032;-71
2023/08/23 10:54:57;;;;;;;20.23;15.70;;;39.30;31.00;;;;;;5043786;28;20033;-71
2023/08/23 10:57:23;;;;;;;22.00;16.85;;;39.30;33.20;;;;;;5041529;28;20060;-71
2023/08/23 10:59:49;;;;;;;20.35;16.45;;;39.10;33.40;;;;;;5042240;28;20099;-71
2023/08/23 11:02:16;;;;;;;26.98;16.25;;;38.50;33.90;;;;;;5041345;28;20486;-70
2023/08/23 11:04:45;;;;;;;20.17;15.70;;;38.40;34.40;;;;;;5052731;28;20036;-70
2023/08/23 11:07:11;;;;;;;27.85;17.92;;;38.60;33.10;;;;;;5052641;28;20125;-70
2023/08/23 11:09:37;;;;;;;27.00;18.98;;;37.90;33.90;;;;;;5051570;28;20024;-70
2023/08/23 11:12:04;;;;;;;20.75;17.63;;;38.30;33.90;;;;;;5050622;28;20036;-70
2023/08/23 11:14:30;;;;;;;18.92;16.98;;;38.90;34.60;;;;;;5051163;28;20039;-70
2023/08/23 11:16:56;;;;;;;23.98;19.58;;;39.20;33.20;;;;;;5051607;28;20040;-70
2023/08/23 11:19:22;;;;;;;25.48;18.17;;;39.70;32.80;;;;;;5051534;28;20043;-70
2023/08/23 11:21:48;;;;;;;27.08;18.35;;;39.80;32.00;;;;;;5050617;28;20036;-71
2023/08/23 11:24:14;;;;;;;22.13;18.30;;;39.90;34.10;;;;;;5051356;28;20063;-70
2023/08/23 11:26:40;;;;;;;23.23;18.42;;;40.00;31.40;;;;;;5051027;28;20103;-70
2023/08/23 11:29:07;;;;;;;23.05;18.35;;;39.50;33.50;;;;;;5050163;28;20024;-70
2023/08/23 11:31:34;;;;;;;20.02;17.65;;;39.00;33.00;;;;;;5051004;28;20393;-70
2023/08/23 11:34:07;;;;;;;24.58;18.90;;;39.20;34.20;;;;;;5051225;28;20032;-70
2023/08/23 11:36:33;;;;;;;26.73;18.95;;;38.90;36.20;;;;;;5050768;28;20054;-70
2023/08/23 11:39:06;;;;;;;23.45;18.73;;;39.20;35.00;;;;;;5052281;28;20035;-70
2023/08/23 11:41:34;;;;;;;25.10;18.63;;;39.70;34.50;;;;;;5051948;28;20143;-70
2023/08/23 11:44:18;;;;;;;26.00;17.65;;;39.20;33.70;;;;;;5051004;28;20035;-70
2023/08/23 11:46:44;;;;;;;25.00;17.52;;;39.30;33.80;;;;;;5050092;28;20592;-70
2023/08/23 11:49:13;;;;;;;21.83;17.58;;;39.60;33.90;;;;;;5050746;28;20058;-70
2023/08/23 11:51:46;;;;;;;24.27;19.30;;;40.10;33.80;;;;;;5051536;28;20035;-70
2023/08/23 11:54:16;;;;;;;27.73;18.65;;;40.30;32.10;;;;;;5044423;28;20441;-70
2023/08/23 11:56:53;;;;;;;26.52;20.02;;;40.10;33.70;;;;;;5045241;28;20085;-70
2023/08/23 11:59:22;;;;;;;32.53;19.50;;;40.40;33.30;;;;;;5049830;28;20119;-70
2023/08/23 12:01:48;;;;;;;22.95;19.38;;;40.40;31.90;;;;;;5041264;28;20049;-70
2023/08/23 12:04:14;;;;;;;22.52;17.25;;;40.60;31.80;;;;;;5043063;28;20071;-70
2023/08/23 12:06:40;;;;;;;23.20;17.77;;;40.10;30.10;;;;;;5046250;28;20556;-71
2023/08/23 12:09:06;;;;;;;22.67;19.67;;;39.20;33.20;;;;;;5023431;28;20025;-71
2023/08/23 12:11:32;;;;;;;23.73;18.30;;;40.00;34.10;;;;;;5049111;28;20071;-70
2023/08/23 12:14:03;;;;;;;22.02;18.42;;;40.30;30.70;;;;;;5051419;28;20028;-70
2023/08/23 12:16:30;;;;;;;28.75;19.45;;;39.80;31.00;;;;;;5053547;28;20062;-70
2023/08/23 12:18:56;;;;;;;21.58;18.00;;;39.70;31.90;;;;;;5050081;28;20040;-70
2023/08/23 12:21:22;;;;;;;30.23;21.58;;;40.00;32.90;;;;;;5052519;28;20042;-70
2023/08/23 12:23:48;;;;;;;22.60;20.20;;;40.30;32.00;;;;;;5051339;28;20123;-70
2023/08/23 12:26:14;;;;;;;25.15;18.85;;;40.20;33.60;;;;;;5053110;28;20093;-70
2023/08/23 12:28:40;;;;;;;23.55;19.38;;;40.20;32.60;;;;;;5053149;28;20043;-70
2023/08/23 12:31:06;;;;;;;25.38;19.40;;;39.90;30.70;;;;;;5053638;28;20024;-70
2023/08/23 12:33:32;;;;;;;23.70;19.30;;;39.70;31.00;;;;;;5040674;28;20816;-70
2023/08/23 12:35:58;;;;;;;23.10;19.60;;;38.90;33.90;;;;;;5049061;28;20484;-70
2023/08/23 12:38:24;;;;;;;28.88;19.45;;;38.30;36.00;;;;;;5049770;28;20028;-70
2023/08/23 12:40:50;;;;;;;18.85;16.25;;;38.00;36.20;;;;;;5048856;28;20036;-70
2023/08/23 12:43:16;;;;;;;18.98;16.20;;;37.10;37.10;;;;;;5049425;28;20033;-70
2023/08/23 12:45:42;;;;;;;24.50;17.00;;;36.70;41.50;;;;;;5050643;28;20050;-70
2023/08/23 12:48:09;;;;;;;17.48;15.65;;;37.10;38.90;;;;;;5049226;28;20024;-71
2023/08/23 12:50:34;;;;;;;16.83;14.48;;;37.60;35.90;;;;;;5048687;28;20087;-70
2023/08/23 12:53:01;;;;;;;17.05;15.23;;;37.90;34.70;;;;;;5049429;28;20036;-71
2023/08/23 12:55:27;;;;;;;17.35;15.65;;;37.90;34.30;;;;;;5048820;28;20075;-70
2023/08/23 12:57:53;;;;;;;18.95;16.60;;;38.30;35.10;;;;;;5030630;28;20104;-70
2023/08/23 13:00:19;;;;;;;20.40;16.63;;;38.10;33.00;;;;;;5047453;28;20526;-70
2023/08/23 13:02:45;;;;;;;19.85;17.85;;;37.90;33.80;;;;;;5048257;28;20410;-70
2023/08/23 13:05:11;;;;;;;18.92;17.02;;;37.60;35.70;;;;;;5048933;28;20029;-71
2023/08/23 13:07:37;;;;;;;21.50;18.05;;;36.90;39.30;;;;;;5048983;28;20078;-70
2023/08/23 13:10:03;;;;;;;19.33;17.42;;;36.70;40.40;;;;;;5049009;28;20028;-70
2023/08/23 13:12:29;;;;;;;18.98;16.98;;;36.50;40.50;;;;;;5049617;28;20028;-70
2023/08/23 13:14:55;;;;;;;20.00;16.50;;;36.90;35.10;;;;;;5049621;28;20039;-70
2023/08/23 13:17:21;;;;;;;19.00;17.05;;;36.70;35.10;;;;;;5039104;28;20029;-71
2023/08/23 13:19:47;;;;;;;21.88;18.38;;;36.50;36.90;;;;;;5037915;28;20039;-70
2023/08/23 13:22:13;;;;;;;21.15;17.92;;;36.10;40.50;;;;;;5053807;28;20025;-70
2023/08/23 13:24:39;;;;;;;19.33;17.33;;;35.80;40.80;;;;;;5053893;28;20037;-70
2023/08/23 13:27:05;;;;;;;19.55;17.27;;;35.60;43.10;;;;;;5052798;28;20032;-70
2023/08/23 13:29:31;;;;;;;23.80;18.35;;;35.40;40.00;;;;;;5052540;28;20021;-70
2023/08/23 13:31:58;;;;;;;19.98;17.90;;;35.50;41.80;;;;;;5053020;28;20039;-70
2023/08/23 13:34:24;;;;;;;22.50;19.42;;;35.30;41.30;;;;;;5052592;28;20112;-70
2023/08/23 13:36:50;;;;;;;25.80;19.52;;;35.20;42.70;;;;;;5052516;28;20585;-70
2023/08/23 13:39:18;;;;;;;21.08;18.88;;;35.00;44.40;;;;;;5052665;28;20025;-69
2023/08/23 13:41:44;;;;;;;22.13;20.02;;;34.70;46.20;;;;;;5052182;28;20062;-70
2023/08/23 13:44:10;;;;;;;22.08;19.33;;;34.30;47.70;;;;;;5052501;28;20096;-70
2023/08/23 13:46:36;;;;;;;20.63;18.52;;;34.30;47.60;;;;;;5052461;28;20120;-69
2023/08/23 13:49:02;;;;;;;18.85;16.70;;;34.60;45.10;;;;;;5052497;28;20025;-70
2023/08/23 13:51:28;;;;;;;18.73;16.92;;;35.00;40.00;;;;;;5052349;28;20063;-70
2023/08/23 13:53:54;;;;;;;18.02;16.33;;;35.40;38.30;;;;;;5052495;28;20029;-70
2023/08/23 13:56:20;;;;;;;20.40;16.92;;;35.80;37.50;;;;;;5052551;28;20029;-70
2023/08/23 13:58:46;;;;;;;19.27;17.48;;;36.20;39.50;;;;;;5052406;28;20032;-70
2023/08/23 14:01:11;;;;;;;19.77;17.67;;;36.40;37.20;;;;;;5052138;28;20025;-70
2023/08/23 14:03:37;;;;;;;33.17;20.92;;;36.60;36.00;;;;;;5052028;28;20458;-70
2023/08/23 14:06:04;;;;;;;20.45;18.42;;;36.70;35.20;;;;;;5052112;28;20052;-70
2023/08/23 14:08:30;;;;;;;21.45;18.90;;;36.80;36.10;;;;;;5052327;28;20474;-69
2023/08/23 14:10:57;;;;;;;21.52;19.23;;;36.90;36.60;;;;;;5052240;28;20029;-70
2023/08/23 14:13:23;;;;;;;22.65;19.13;;;37.00;35.80;;;;;;5051965;28;20032;-70
2023/08/23 14:15:50;;;;;;;25.35;20.73;;;37.20;35.00;;;;;;5052396;28;20064;-70
2023/08/23 14:18:16;;;;;;;18.75;16.88;;;37.10;35.50;;;;;;5052231;28;20029;-70
2023/08/23 14:20:42;;;;;;;19.80;17.90;;;37.20;33.70;;;;;;5052032;28;20040;-69
2023/08/23 14:23:08;;;;;;;19.80;17.67;;;37.20;34.20;;;;;;5052612;28;20486;-70
2023/08/23 14:25:35;;;;;;;19.98;18.00;;;37.00;34.10;;;;;;5055860;28;20037;-70
2023/08/23 14:28:02;;;;;;;20.25;18.15;;;37.00;36.30;;;;;;5056386;28;20029;-70
2023/08/23 14:30:28;;;;;;;19.60;17.70;;;36.70;36.80;;;;;;5056145;28;20025;-70
2023/08/23 14:32:54;;;;;;;22.05;18.20;;;36.70;35.40;;;;;;5056099;28;20125;-70
2023/08/23 14:35:21;;;;;;;20.30;18.13;;;36.90;34.40;;;;;;5055956;28;20028;-70
2023/08/23 14:37:48;;;;;;;19.85;17.75;;;36.70;38.30;;;;;;5055805;28;20478;-70
2023/08/23 14:40:14;;;;;;;22.08;17.85;;;36.30;37.30;;;;;;5055878;28;20417;-70
2023/08/23 14:42:41;;;;;;;18.67;16.45;;;36.40;36.80;;;;;;5055407;28;20272;-70
2023/08/23 14:45:09;;;;;;;19.33;17.33;;;36.20;36.40;;;;;;5056088;28;20052;-70
2023/08/23 14:47:36;;;;;;;20.33;18.23;;;36.00;37.30;;;;;;5055610;28;20029;-70
2023/08/23 14:50:05;;;;;;;21.02;18.67;;;35.50;41.90;;;;;;5055793;28;20059;-70
2023/08/23 14:52:32;;;;;;;22.85;20.80;;;35.20;40.90;;;;;;5055646;28;20055;-70
2023/08/23 14:55:06;;;;;;;24.38;21.88;;;35.10;43.50;;;;;;5055810;28;20031;-70
2023/08/23 14:57:32;;;;;;;26.35;23.75;;;35.20;43.00;;;;;;5055552;28;20025;-70
2023/08/23 14:59:58;;;;;;;24.17;22.15;;;35.00;43.80;;;;;;5055675;28;20129;-70
2023/08/23 15:02:26;;;;;;;25.67;23.00;;;35.20;41.50;;;;;;5055336;28;20071;-69
2023/08/23 15:04:54;;;;;;;25.25;22.75;;;34.90;43.60;;;;;;5055395;28;20475;-70
2023/08/23 15:07:21;;;;;;;26.70;24.42;;;35.00;41.70;;;;;;5055392;28;20036;-70
2023/08/23 15:09:51;;;;;;;27.60;25.13;;;35.10;43.20;;;;;;5055513;28;20036;-70
2023/08/23 15:12:18;;;;;;;28.25;25.75;;;35.10;42.80;;;;;;5055207;28;20028;-70
2023/08/23 15:14:45;;;;;;;24.70;22.50;;;35.00;43.70;;;;;;5055196;28;20478;-69
2023/08/23 15:17:11;;;;;;;52.38;27.30;;;35.00;40.30;;;;;;5055188;28;20033;-69
2023/08/23 15:19:40;;;;;;;28.08;25.60;;;34.90;44.20;;;;;;5055070;28;20029;-70
2023/08/23 15:22:06;;;;;;;26.35;23.63;;;34.90;43.90;;;;;;5055159;28;20025;-70
2023/08/23 15:24:32;;;;;;;24.05;21.77;;;34.70;42.80;;;;;;5055075;28;20025;-70
2023/08/23 15:26:58;;;;;;;25.15;22.88;;;34.50;42.30;;;;;;5055162;28;20108;-70
2023/08/23 15:29:26;;;;;;;26.75;24.33;;;34.50;43.50;;;;;;5054710;28;20025;-69
2023/08/23 15:31:53;;;;;;;28.73;25.73;;;34.50;44.50;;;;;;5054825;28;20028;-70
2023/08/23 15:34:19;;;;;;;24.77;22.40;;;34.30;45.20;;;;;;5054610;28;20085;-70
2023/08/23 15:36:45;;;;;;;27.33;24.35;;;34.30;43.80;;;;;;5055131;28;20029;-69
2023/08/23 15:39:12;;;;;;;27.80;23.83;;;34.00;45.80;;;;;;5054746;28;20040;-69
2023/08/23 15:41:38;;;;;;;26.65;24.08;;;34.00;45.60;;;;;;5054600;28;20367;-69
2023/08/23 15:44:04;;;;;;;26.52;23.95;;;33.70;46.20;;;;;;5054825;28;20025;-70
2023/08/23 15:46:30;;;;;;;32.00;26.60;;;33.60;47.30;;;;;;5054484;28;20036;-70
2023/08/23 15:48:56;;;;;;;27.35;24.85;;;33.30;49.20;;;;;;5054570;28;20025;-69
2023/08/23 15:51:21;;;;;;;30.02;25.45;;;33.30;48.40;;;;;;5054745;28;20047;-70
2023/08/23 15:53:47;;;;;;;28.67;26.08;;;33.10;49.40;;;;;;5054591;28;20027;-69
2023/08/23 15:56:13;;;;;;;29.33;26.52;;;33.00;51.00;;;;;;5054695;28;20033;-69
2023/08/23 15:58:40;;;;;;;27.60;24.98;;;32.90;50.60;;;;;;5054367;28;20052;-69
2023/08/23 16:01:09;;;;;;;28.38;25.70;;;32.70;51.70;;;;;;5053672;28;20104;-69
2023/08/23 16:03:52;;;;;;;29.02;26.33;;;32.60;51.90;;;;;;5054139;28;20406;-69
2023/08/23 16:06:18;;;;;;;24.98;22.33;;;32.40;52.80;;;;;;5054333;28;20516;-69
2023/08/23 16:08:44;;;;;;;26.65;24.15;;;32.30;51.00;;;;;;5054462;28;20032;-69
2023/08/23 16:11:10;;;;;;;27.98;25.00;;;32.20;51.70;;;;;;5054401;28;20098;-69
2023/08/23 16:13:36;;;;;;;26.38;23.73;;;32.10;52.80;;;;;;5053608;28;20058;-69
2023/08/23 16:16:02;;;;;;;26.70;23.92;;;32.10;52.80;;;;;;5036231;28;20033;-69
2023/08/23 16:18:28;;;;;;;24.13;21.73;;;32.10;52.70;;;;;;5053926;28;20025;-69
2023/08/23 16:20:54;;;;;;;24.75;22.48;;;31.90;51.50;;;;;;5053924;28;20051;-69
2023/08/23 16:23:20;;;;;;;24.45;21.95;;;31.90;52.30;;;;;;5053750;28;20040;-69
2023/08/23 16:25:51;;;;;;;23.02;20.85;;;31.80;52.20;;;;;;5054154;28;20024;-69
2023/08/23 16:28:17;;;;;;;22.90;20.52;;;31.70;52.40;;;;;;5053838;28;20548;-69
2023/08/23 16:30:48;;;;;;;22.35;20.05;;;31.60;52.10;;;;;;5053809;28;20065;-69
2023/08/23 16:33:14;;;;;;;20.85;18.95;;;31.50;52.80;;;;;;5053868;28;20107;-69
2023/08/23 16:35:40;;;;;;;21.63;19.45;;;31.40;52.20;;;;;;5053457;28;20039;-70
2023/08/23 16:38:07;;;;;;;22.33;20.13;;;31.30;53.10;;;;;;5053795;28;20040;-69
2023/08/23 16:40:33;;;;;;;21.27;19.38;;;31.20;53.80;;;;;;5053730;28;20037;-69
2023/08/23 16:42:59;;;;;;;20.77;18.88;;;31.00;53.80;;;;;;5053623;28;20474;-69
2023/08/23 16:45:25;;;;;;;20.60;18.55;;;30.90;53.80;;;;;;5053240;28;20389;-69
2023/08/23 16:47:51;;;;;;;21.85;19.85;;;30.80;55.40;;;;;;5053171;28;20112;-69
2023/08/23 16:50:17;;;;;;;20.77;18.83;;;30.60;54.80;;;;;;5053285;28;20096;-69
2023/08/23 16:52:43;;;;;;;21.38;19.48;;;30.50;55.00;;;;;;5053353;28;20033;-69
2023/08/23 16:55:09;;;;;;;20.00;17.92;;;30.40;55.70;;;;;;5053378;28;20033;-69
2023/08/23 16:57:35;;;;;;;20.58;18.38;;;30.30;56.80;;;;;;5053038;28;20111;-69
2023/08/23 17:00:05;;;;;;;21.65;19.33;;;30.20;56.20;;;;;;5053522;28;20033;-69
2023/08/23 17:02:31;;;;;;;20.60;18.50;;;30.00;55.90;;;;;;5053893;28;20051;-69
2023/08/23 17:04:58;;;;;;;24.60;19.58;;;29.90;56.60;;;;;;5052969;28;20070;-69
2023/08/23 17:07:24;;;;;;;21.65;19.27;;;29.80;56.90;;;;;;5053146;28;20494;-69
2023/08/23 17:09:51;;;;;;;22.17;19.15;;;29.60;56.90;;;;;;5053124;28;20052;-69
2023/08/23 17:12:18;;;;;;;23.40;20.02;;;29.50;58.40;;;;;;5053238;28;20101;-69
2023/08/23 17:14:44;;;;;;;26.02;20.58;;;29.30;60.40;;;;;;5053069;28;20029;-69
2023/08/23 17:17:12;;;;;;;31.52;20.55;;;29.10;63.20;;;;;;5052926;28;20470;-69
2023/08/23 17:19:39;;;;;;;23.30;20.83;;;29.00;66.00;;;;;;5052727;28;20037;-69
2023/08/23 17:22:06;;;;;;;23.38;20.90;;;28.90;68.00;;;;;;5052898;28;20370;-69
2023/08/23 17:24:37;;;;;;;24.40;22.00;;;28.70;70.60;;;;;;5052770;28;20040;-69
2023/08/23 17:27:03;;;;;;;24.52;21.90;;;28.60;73.70;;;;;;5052802;28;20497;-69
2023/08/23 17:29:30;;;;;;;24.60;21.60;;;28.40;76.10;;;;;;5052817;28;20028;-69
2023/08/23 17:31:56;;;;;;;29.63;22.33;;;28.30;77.50;;;;;;5052781;28;20033;-69
2023/08/23 17:34:22;;;;;;;26.25;23.05;;;28.20;80.20;;;;;;5053226;28;20167;-69
2023/08/23 17:36:48;;;;;;;28.20;23.17;;;28.10;83.30;;;;;;5052679;28;20082;-69
2023/08/23 17:39:17;;;;;;;28.60;23.23;;;27.80;86.30;;;;;;5052432;28;20111;-69
2023/08/23 17:41:43;;;;;;;30.65;23.10;;;27.70;88.80;;;;;;5052457;28;20214;-69
2023/08/23 17:44:09;;;;;;;26.55;23.10;;;27.60;90.50;;;;;;5052765;28;20112;-69
2023/08/23 17:46:38;;;;;;;30.33;23.95;;;27.50;92.10;;;;;;5052314;28;20029;-69
2023/08/23 17:49:04;;;;;;;29.77;24.15;;;27.40;92.90;;;;;;5052581;28;20029;-69
2023/08/23 17:51:35;;;;;;;29.10;23.50;;;27.30;93.70;;;;;;5052376;28;20025;-69
2023/08/23 17:54:01;;;;;;;;;;;27.20;94.40;;;;;;5053063;28;20025;-69
2023/08/23 17:56:27;;;;;;;25.63;22.60;;;27.10;95.40;;;;;;5052540;28;19988;-69
2023/08/23 17:58:53;;;;;;;26.02;23.50;;;27.00;95.90;;;;;;5052236;28;20035;-69
2023/08/23 18:01:19;;;;;;;30.13;23.08;;;26.90;97.30;;;;;;5052148;28;20059;-69
2023/08/23 18:03:46;;;;;;;31.88;22.77;;;26.90;97.20;;;;;;5052845;28;20072;-69
2023/08/23 18:06:12;;;;;;;30.13;24.23;;;26.80;97.30;;;;;;5052521;28;20429;-69
2023/08/23 18:08:39;;;;;;;29.63;24.08;;;26.70;97.80;;;;;;5052401;28;20033;-69
2023/08/23 18:11:05;;;;;;;27.60;24.67;;;26.60;98.30;;;;;;5052311;28;20013;-69
2023/08/23 18:13:31;;;;;;;28.98;24.27;;;26.50;99.20;;;;;;5052024;28;20078;-69
2023/08/23 18:15:58;;;;;;;28.35;24.67;;;26.40;99.30;;;;;;5052279;28;20029;-68
2023/08/23 18:18:24;;;;;;;33.80;26.45;;;26.30;99.90;;;;;;5052103;28;20033;-69
2023/08/23 18:20:49;;;;;;;38.10;26.60;;;26.30;99.90;;;;;;5052096;28;20040;-69
2023/08/23 18:23:16;;;;;;;34.15;27.58;;;26.30;99.90;;;;;;5052159;28;20032;-69
2023/08/23 18:25:43;;;;;;;30.77;25.63;;;26.20;99.90;;;;;;5052078;28;20029;-69
2023/08/23 18:28:09;;;;;;;32.40;25.95;;;26.00;99.90;;;;;;5052083;28;20025;-69